sensor_id;sensor_type;location;lat;lon;timestamp;P1;durP1;ratioP1;P2;durP2;ratioP2
85259;SDS011;75671;41.678;44.824;2024-01-30T00:00:31;18.10;;;8.77;;
85259;SDS011;75671;41.678;44.824;2024-01-30T00:03:19;15.88;;;7.55;;
85259;SDS011;75671;41.678;44.824;2024-01-30T00:05:46;14.30;;;7.47;;
85259;SDS011;75671;41.678;44.824;2024-01-30T00:08:13;16.25;;;7.53;;
85259;SDS011;75671;41.678;44.824;2024-01-30T00:10:40;14.82;;;7.65;;
85259;SDS011;75671;41.678;44.824;2024-01-30T00:13:07;18.23;;;7.93;;
85259;SDS011;75671;41.678;44.824;2024-01-30T00:15:34;21.55;;;9.13;;
85259;SDS011;75671;41.678;44.824;2024-01-30T00:18:01;25.65;;;10.52;;
85259;SDS011;75671;41.678;44.824;2024-01-30T00:20:28;24.75;;;10.63;;
85259;SDS011;75671;41.678;44.824;2024-01-30T00:22:55;23.30;;;9.73;;
85259;SDS011;75671;41.678;44.824;2024-01-30T00:25:22;20.63;;;8.85;;
85259;SDS011;75671;41.678;44.824;2024-01-30T00:27:50;20.80;;;9.20;;
85259;SDS011;75671;41.678;44.824;2024-01-30T00:30:16;23.30;;;9.82;;
85259;SDS011;75671;41.678;44.824;2024-01-30T00:32:45;18.17;;;10.15;;
85259;SDS011;75671;41.678;44.824;2024-01-30T00:35:12;24.60;;;10.10;;
85259;SDS011;75671;41.678;44.824;2024-01-30T00:37:39;19.48;;;9.63;;
85259;SDS011;75671;41.678;44.824;2024-01-30T00:40:06;20.30;;;9.65;;
85259;SDS011;75671;41.678;44.824;2024-01-30T00:42:33;19.30;;;7.72;;
85259;SDS011;75671;41.678;44.824;2024-01-30T00:45:00;19.02;;;9.27;;
85259;SDS011;75671;41.678;44.824;2024-01-30T00:47:29;21.00;;;9.35;;
85259;SDS011;75671;41.678;44.824;2024-01-30T00:49:59;19.40;;;9.88;;
85259;SDS011;75671;41.678;44.824;2024-01-30T00:52:26;22.02;;;9.75;;
85259;SDS011;75671;41.678;44.824;2024-01-30T00:54:53;19.83;;;9.73;;
85259;SDS011;75671;41.678;44.824;2024-01-30T00:57:20;18.77;;;9.57;;
85259;SDS011;75671;41.678;44.824;2024-01-30T00:59:47;22.42;;;9.60;;
85259;SDS011;75671;41.678;44.824;2024-01-30T01:02:14;27.02;;;9.90;;
85259;SDS011;75671;41.678;44.824;2024-01-30T01:04:43;19.98;;;9.43;;
85259;SDS011;75671;41.678;44.824;2024-01-30T01:07:11;20.63;;;8.90;;
85259;SDS011;75671;41.678;44.824;2024-01-30T01:09:38;22.00;;;10.65;;
85259;SDS011;75671;41.678;44.824;2024-01-30T01:12:05;21.50;;;9.90;;
85259;SDS011;75671;41.678;44.824;2024-01-30T01:14:32;32.03;;;10.30;;
85259;SDS011;75671;41.678;44.824;2024-01-30T01:17:00;25.48;;;10.60;;
85259;SDS011;75671;41.678;44.824;2024-01-30T01:19:26;23.85;;;10.18;;
85259;SDS011;75671;41.678;44.824;2024-01-30T01:21:54;23.52;;;10.80;;
85259;SDS011;75671;41.678;44.824;2024-01-30T01:24:21;27.30;;;11.48;;
85259;SDS011;75671;41.678;44.824;2024-01-30T01:26:49;25.27;;;11.65;;
85259;SDS011;75671;41.678;44.824;2024-01-30T01:29:16;26.55;;;11.23;;
85259;SDS011;75671;41.678;44.824;2024-01-30T01:31:43;28.48;;;10.77;;
85259;SDS011;75671;41.678;44.824;2024-01-30T01:34:10;28.95;;;12.80;;
85259;SDS011;75671;41.678;44.824;2024-01-30T01:36:38;32.97;;;13.70;;
85259;SDS011;75671;41.678;44.824;2024-01-30T01:39:06;39.85;;;11.98;;
85259;SDS011;75671;41.678;44.824;2024-01-30T01:41:35;36.45;;;12.90;;
85259;SDS011;75671;41.678;44.824;2024-01-30T01:44:02;33.80;;;12.63;;
85259;SDS011;75671;41.678;44.824;2024-01-30T01:46:30;29.52;;;12.35;;
85259;SDS011;75671;41.678;44.824;2024-01-30T01:49:00;29.77;;;11.80;;
85259;SDS011;75671;41.678;44.824;2024-01-30T01:51:29;39.30;;;13.23;;
85259;SDS011;75671;41.678;44.824;2024-01-30T01:53:58;30.83;;;12.32;;
85259;SDS011;75671;41.678;44.824;2024-01-30T01:56:29;38.17;;;13.48;;
85259;SDS011;75671;41.678;44.824;2024-01-30T01:58:59;34.90;;;12.95;;
85259;SDS011;75671;41.678;44.824;2024-01-30T02:01:27;34.97;;;13.02;;
85259;SDS011;75671;41.678;44.824;2024-01-30T02:03:55;41.40;;;12.80;;
85259;SDS011;75671;41.678;44.824;2024-01-30T02:06:23;37.97;;;12.65;;
85259;SDS011;75671;41.678;44.824;2024-01-30T02:08:50;34.47;;;13.82;;
85259;SDS011;75671;41.678;44.824;2024-01-30T02:11:17;32.50;;;12.90;;
85259;SDS011;75671;41.678;44.824;2024-01-30T02:13:45;32.45;;;12.20;;
85259;SDS011;75671;41.678;44.824;2024-01-30T02:16:12;30.38;;;11.55;;
85259;SDS011;75671;41.678;44.824;2024-01-30T02:18:39;29.70;;;11.75;;
85259;SDS011;75671;41.678;44.824;2024-01-30T02:21:19;26.25;;;11.07;;
85259;SDS011;75671;41.678;44.824;2024-01-30T02:23:46;29.85;;;10.77;;
85259;SDS011;75671;41.678;44.824;2024-01-30T02:26:14;27.50;;;12.10;;
85259;SDS011;75671;41.678;44.824;2024-01-30T02:28:41;25.52;;;11.13;;
85259;SDS011;75671;41.678;44.824;2024-01-30T02:31:08;29.20;;;11.60;;
85259;SDS011;75671;41.678;44.824;2024-01-30T02:33:35;28.40;;;12.02;;
85259;SDS011;75671;41.678;44.824;2024-01-30T02:36:02;29.02;;;11.85;;
85259;SDS011;75671;41.678;44.824;2024-01-30T02:38:29;27.67;;;11.45;;
85259;SDS011;75671;41.678;44.824;2024-01-30T02:40:56;32.60;;;11.25;;
85259;SDS011;75671;41.678;44.824;2024-01-30T02:43:23;28.27;;;11.02;;
85259;SDS011;75671;41.678;44.824;2024-01-30T02:45:50;29.75;;;11.45;;
85259;SDS011;75671;41.678;44.824;2024-01-30T02:48:17;28.38;;;11.02;;
85259;SDS011;75671;41.678;44.824;2024-01-30T02:50:44;28.35;;;11.82;;
85259;SDS011;75671;41.678;44.824;2024-01-30T02:53:13;26.27;;;11.48;;
85259;SDS011;75671;41.678;44.824;2024-01-30T02:55:40;32.65;;;11.38;;
85259;SDS011;75671;41.678;44.824;2024-01-30T02:58:07;27.45;;;11.15;;
85259;SDS011;75671;41.678;44.824;2024-01-30T03:00:34;26.40;;;11.80;;
85259;SDS011;75671;41.678;44.824;2024-01-30T03:03:02;26.08;;;12.32;;
85259;SDS011;75671;41.678;44.824;2024-01-30T03:05:29;27.92;;;11.88;;
85259;SDS011;75671;41.678;44.824;2024-01-30T03:07:56;29.17;;;12.63;;
85259;SDS011;75671;41.678;44.824;2024-01-30T03:10:23;26.83;;;11.15;;
85259;SDS011;75671;41.678;44.824;2024-01-30T03:12:50;28.95;;;10.75;;
85259;SDS011;75671;41.678;44.824;2024-01-30T03:15:18;32.53;;;11.45;;
85259;SDS011;75671;41.678;44.824;2024-01-30T03:17:45;30.80;;;13.00;;
85259;SDS011;75671;41.678;44.824;2024-01-30T03:20:12;31.20;;;11.30;;
85259;SDS011;75671;41.678;44.824;2024-01-30T03:22:39;33.88;;;12.57;;
85259;SDS011;75671;41.678;44.824;2024-01-30T03:25:06;29.10;;;11.75;;
85259;SDS011;75671;41.678;44.824;2024-01-30T03:27:33;31.10;;;12.30;;
85259;SDS011;75671;41.678;44.824;2024-01-30T03:30:00;27.60;;;12.43;;
85259;SDS011;75671;41.678;44.824;2024-01-30T03:32:29;28.25;;;11.93;;
85259;SDS011;75671;41.678;44.824;2024-01-30T03:34:57;30.77;;;13.18;;
85259;SDS011;75671;41.678;44.824;2024-01-30T03:37:24;29.90;;;11.95;;
85259;SDS011;75671;41.678;44.824;2024-01-30T03:39:51;30.90;;;13.18;;
85259;SDS011;75671;41.678;44.824;2024-01-30T03:42:18;30.42;;;12.82;;
85259;SDS011;75671;41.678;44.824;2024-01-30T03:44:46;33.35;;;12.63;;
85259;SDS011;75671;41.678;44.824;2024-01-30T03:47:13;29.80;;;11.85;;
85259;SDS011;75671;41.678;44.824;2024-01-30T03:49:40;33.40;;;12.70;;
85259;SDS011;75671;41.678;44.824;2024-01-30T03:52:07;29.65;;;12.80;;
85259;SDS011;75671;41.678;44.824;2024-01-30T03:54:34;32.10;;;13.52;;
85259;SDS011;75671;41.678;44.824;2024-01-30T03:57:01;35.67;;;13.18;;
85259;SDS011;75671;41.678;44.824;2024-01-30T03:59:29;33.22;;;13.90;;
85259;SDS011;75671;41.678;44.824;2024-01-30T04:01:56;34.47;;;14.38;;
85259;SDS011;75671;41.678;44.824;2024-01-30T04:04:23;30.20;;;13.15;;
85259;SDS011;75671;41.678;44.824;2024-01-30T04:06:50;31.17;;;13.63;;
85259;SDS011;75671;41.678;44.824;2024-01-30T04:09:17;33.35;;;13.45;;
85259;SDS011;75671;41.678;44.824;2024-01-30T04:11:45;35.83;;;14.23;;
85259;SDS011;75671;41.678;44.824;2024-01-30T04:14:12;31.00;;;14.00;;
85259;SDS011;75671;41.678;44.824;2024-01-30T04:16:39;36.83;;;13.82;;
85259;SDS011;75671;41.678;44.824;2024-01-30T04:19:07;33.00;;;13.10;;
85259;SDS011;75671;41.678;44.824;2024-01-30T04:21:34;29.80;;;12.43;;
85259;SDS011;75671;41.678;44.824;2024-01-30T04:24:01;31.30;;;11.98;;
85259;SDS011;75671;41.678;44.824;2024-01-30T04:26:28;27.27;;;12.07;;
85259;SDS011;75671;41.678;44.824;2024-01-30T04:28:55;30.27;;;12.52;;
85259;SDS011;75671;41.678;44.824;2024-01-30T04:31:22;27.90;;;11.25;;
85259;SDS011;75671;41.678;44.824;2024-01-30T04:33:49;28.67;;;12.15;;
85259;SDS011;75671;41.678;44.824;2024-01-30T04:36:16;28.00;;;12.30;;
85259;SDS011;75671;41.678;44.824;2024-01-30T04:38:44;27.30;;;12.10;;
85259;SDS011;75671;41.678;44.824;2024-01-30T04:41:10;27.83;;;11.52;;
85259;SDS011;75671;41.678;44.824;2024-01-30T04:43:38;25.88;;;11.68;;
85259;SDS011;75671;41.678;44.824;2024-01-30T04:46:05;25.73;;;10.63;;
85259;SDS011;75671;41.678;44.824;2024-01-30T04:48:32;27.98;;;11.27;;
85259;SDS011;75671;41.678;44.824;2024-01-30T04:50:59;25.63;;;10.93;;
85259;SDS011;75671;41.678;44.824;2024-01-30T04:53:30;23.17;;;10.55;;
85259;SDS011;75671;41.678;44.824;2024-01-30T04:55:57;22.98;;;9.82;;
85259;SDS011;75671;41.678;44.824;2024-01-30T04:58:25;25.42;;;11.13;;
85259;SDS011;75671;41.678;44.824;2024-01-30T05:00:52;24.23;;;10.93;;
85259;SDS011;75671;41.678;44.824;2024-01-30T05:03:19;26.30;;;11.38;;
85259;SDS011;75671;41.678;44.824;2024-01-30T05:05:48;26.55;;;11.98;;
85259;SDS011;75671;41.678;44.824;2024-01-30T05:08:16;36.30;;;12.15;;
85259;SDS011;75671;41.678;44.824;2024-01-30T05:10:43;28.40;;;12.27;;
85259;SDS011;75671;41.678;44.824;2024-01-30T05:13:10;27.67;;;11.60;;
85259;SDS011;75671;41.678;44.824;2024-01-30T05:15:37;37.78;;;11.80;;
85259;SDS011;75671;41.678;44.824;2024-01-30T05:18:04;28.45;;;11.75;;
85259;SDS011;75671;41.678;44.824;2024-01-30T05:20:31;27.52;;;12.50;;
85259;SDS011;75671;41.678;44.824;2024-01-30T05:22:58;26.95;;;11.70;;
85259;SDS011;75671;41.678;44.824;2024-01-30T05:25:25;29.98;;;12.20;;
85259;SDS011;75671;41.678;44.824;2024-01-30T05:27:53;29.67;;;12.57;;
85259;SDS011;75671;41.678;44.824;2024-01-30T05:30:21;27.60;;;11.23;;
85259;SDS011;75671;41.678;44.824;2024-01-30T05:32:48;27.92;;;11.18;;
85259;SDS011;75671;41.678;44.824;2024-01-30T05:35:16;27.58;;;11.27;;
85259;SDS011;75671;41.678;44.824;2024-01-30T05:37:43;30.35;;;11.73;;
85259;SDS011;75671;41.678;44.824;2024-01-30T05:40:10;26.45;;;11.07;;
85259;SDS011;75671;41.678;44.824;2024-01-30T05:42:37;34.55;;;12.27;;
85259;SDS011;75671;41.678;44.824;2024-01-30T05:45:04;32.95;;;12.57;;
85259;SDS011;75671;41.678;44.824;2024-01-30T05:47:32;25.92;;;12.07;;
85259;SDS011;75671;41.678;44.824;2024-01-30T05:49:59;28.73;;;11.63;;
85259;SDS011;75671;41.678;44.824;2024-01-30T05:52:26;30.30;;;12.25;;
85259;SDS011;75671;41.678;44.824;2024-01-30T05:54:53;25.63;;;11.02;;
85259;SDS011;75671;41.678;44.824;2024-01-30T05:57:20;26.05;;;11.82;;
85259;SDS011;75671;41.678;44.824;2024-01-30T05:59:47;25.10;;;11.07;;
85259;SDS011;75671;41.678;44.824;2024-01-30T06:02:15;29.10;;;11.30;;
85259;SDS011;75671;41.678;44.824;2024-01-30T06:04:41;28.33;;;12.40;;
85259;SDS011;75671;41.678;44.824;2024-01-30T06:07:09;30.80;;;11.98;;
85259;SDS011;75671;41.678;44.824;2024-01-30T06:09:36;31.90;;;11.57;;
85259;SDS011;75671;41.678;44.824;2024-01-30T06:12:05;29.52;;;12.60;;
85259;SDS011;75671;41.678;44.824;2024-01-30T06:14:32;25.60;;;11.15;;
85259;SDS011;75671;41.678;44.824;2024-01-30T06:17:00;25.83;;;11.15;;
85259;SDS011;75671;41.678;44.824;2024-01-30T06:19:27;26.10;;;10.93;;
85259;SDS011;75671;41.678;44.824;2024-01-30T06:21:55;41.25;;;12.25;;
85259;SDS011;75671;41.678;44.824;2024-01-30T06:24:23;32.92;;;13.32;;
85259;SDS011;75671;41.678;44.824;2024-01-30T06:26:50;28.85;;;12.48;;
85259;SDS011;75671;41.678;44.824;2024-01-30T06:29:17;27.65;;;11.95;;
85259;SDS011;75671;41.678;44.824;2024-01-30T06:31:44;34.30;;;13.13;;
85259;SDS011;75671;41.678;44.824;2024-01-30T06:34:11;32.10;;;13.30;;
85259;SDS011;75671;41.678;44.824;2024-01-30T06:36:39;27.52;;;12.35;;
85259;SDS011;75671;41.678;44.824;2024-01-30T06:39:06;31.80;;;12.80;;
85259;SDS011;75671;41.678;44.824;2024-01-30T06:41:34;33.40;;;13.13;;
85259;SDS011;75671;41.678;44.824;2024-01-30T06:44:03;34.60;;;14.05;;
85259;SDS011;75671;41.678;44.824;2024-01-30T06:46:33;29.40;;;12.75;;
85259;SDS011;75671;41.678;44.824;2024-01-30T06:49:00;32.00;;;12.55;;
85259;SDS011;75671;41.678;44.824;2024-01-30T06:51:28;30.85;;;12.73;;
85259;SDS011;75671;41.678;44.824;2024-01-30T06:53:54;31.50;;;13.65;;
85259;SDS011;75671;41.678;44.824;2024-01-30T06:56:22;34.80;;;13.25;;
85259;SDS011;75671;41.678;44.824;2024-01-30T06:58:50;33.38;;;13.93;;
85259;SDS011;75671;41.678;44.824;2024-01-30T07:01:17;35.40;;;13.77;;
85259;SDS011;75671;41.678;44.824;2024-01-30T07:03:44;34.38;;;13.50;;
85259;SDS011;75671;41.678;44.824;2024-01-30T07:06:11;35.63;;;14.10;;
85259;SDS011;75671;41.678;44.824;2024-01-30T07:08:38;40.65;;;14.73;;
85259;SDS011;75671;41.678;44.824;2024-01-30T07:11:06;33.65;;;13.93;;
85259;SDS011;75671;41.678;44.824;2024-01-30T07:13:34;32.22;;;13.20;;
85259;SDS011;75671;41.678;44.824;2024-01-30T07:16:01;33.80;;;14.23;;
85259;SDS011;75671;41.678;44.824;2024-01-30T07:18:28;36.75;;;13.05;;
85259;SDS011;75671;41.678;44.824;2024-01-30T07:20:56;37.10;;;13.80;;
85259;SDS011;75671;41.678;44.824;2024-01-30T07:23:23;31.27;;;14.38;;
85259;SDS011;75671;41.678;44.824;2024-01-30T07:25:50;36.53;;;14.23;;
85259;SDS011;75671;41.678;44.824;2024-01-30T07:28:17;35.67;;;14.82;;
85259;SDS011;75671;41.678;44.824;2024-01-30T07:30:44;36.85;;;13.88;;
85259;SDS011;75671;41.678;44.824;2024-01-30T07:33:11;41.00;;;15.63;;
85259;SDS011;75671;41.678;44.824;2024-01-30T07:35:39;38.95;;;14.32;;
85259;SDS011;75671;41.678;44.824;2024-01-30T07:38:06;44.50;;;15.40;;
85259;SDS011;75671;41.678;44.824;2024-01-30T07:40:33;36.80;;;15.65;;
85259;SDS011;75671;41.678;44.824;2024-01-30T07:43:00;37.00;;;16.38;;
85259;SDS011;75671;41.678;44.824;2024-01-30T07:45:27;39.28;;;14.10;;
85259;SDS011;75671;41.678;44.824;2024-01-30T07:47:59;33.13;;;14.88;;
85259;SDS011;75671;41.678;44.824;2024-01-30T07:50:26;45.55;;;19.17;;
85259;SDS011;75671;41.678;44.824;2024-01-30T07:52:55;46.25;;;19.42;;
85259;SDS011;75671;41.678;44.824;2024-01-30T07:55:23;42.83;;;15.85;;
85259;SDS011;75671;41.678;44.824;2024-01-30T07:58:19;33.75;;;14.32;;
85259;SDS011;75671;41.678;44.824;2024-01-30T08:00:47;41.25;;;15.60;;
85259;SDS011;75671;41.678;44.824;2024-01-30T08:03:14;34.00;;;14.88;;
85259;SDS011;75671;41.678;44.824;2024-01-30T08:05:44;34.05;;;15.00;;
85259;SDS011;75671;41.678;44.824;2024-01-30T08:08:11;47.92;;;16.02;;
85259;SDS011;75671;41.678;44.824;2024-01-30T08:10:38;35.97;;;15.68;;
85259;SDS011;75671;41.678;44.824;2024-01-30T08:13:05;38.03;;;16.23;;
85259;SDS011;75671;41.678;44.824;2024-01-30T08:15:33;55.83;;;17.40;;
85259;SDS011;75671;41.678;44.824;2024-01-30T08:18:00;49.28;;;17.42;;
85259;SDS011;75671;41.678;44.824;2024-01-30T08:20:27;33.75;;;14.55;;
85259;SDS011;75671;41.678;44.824;2024-01-30T08:22:54;44.60;;;15.23;;
85259;SDS011;75671;41.678;44.824;2024-01-30T08:25:22;34.83;;;15.27;;
85259;SDS011;75671;41.678;44.824;2024-01-30T08:27:49;40.75;;;15.35;;
85259;SDS011;75671;41.678;44.824;2024-01-30T08:30:17;33.97;;;14.40;;
85259;SDS011;75671;41.678;44.824;2024-01-30T08:32:43;36.78;;;16.83;;
85259;SDS011;75671;41.678;44.824;2024-01-30T08:35:11;49.30;;;14.43;;
85259;SDS011;75671;41.678;44.824;2024-01-30T08:37:40;35.65;;;14.50;;
85259;SDS011;75671;41.678;44.824;2024-01-30T08:40:07;34.75;;;13.55;;
85259;SDS011;75671;41.678;44.824;2024-01-30T08:42:34;31.80;;;13.70;;
85259;SDS011;75671;41.678;44.824;2024-01-30T08:45:02;34.15;;;12.95;;
85259;SDS011;75671;41.678;44.824;2024-01-30T08:47:31;29.80;;;12.20;;
85259;SDS011;75671;41.678;44.824;2024-01-30T08:49:58;30.80;;;13.15;;
85259;SDS011;75671;41.678;44.824;2024-01-30T08:52:25;26.75;;;12.13;;
85259;SDS011;75671;41.678;44.824;2024-01-30T08:54:53;24.73;;;10.98;;
85259;SDS011;75671;41.678;44.824;2024-01-30T08:57:20;31.23;;;12.15;;
85259;SDS011;75671;41.678;44.824;2024-01-30T08:59:48;29.40;;;13.27;;
85259;SDS011;75671;41.678;44.824;2024-01-30T09:02:15;32.38;;;13.13;;
85259;SDS011;75671;41.678;44.824;2024-01-30T09:04:45;28.10;;;12.13;;
85259;SDS011;75671;41.678;44.824;2024-01-30T09:07:11;33.63;;;11.80;;
85259;SDS011;75671;41.678;44.824;2024-01-30T09:09:40;28.05;;;10.70;;
85259;SDS011;75671;41.678;44.824;2024-01-30T09:12:08;28.00;;;12.15;;
85259;SDS011;75671;41.678;44.824;2024-01-30T09:14:41;31.40;;;12.20;;
85259;SDS011;75671;41.678;44.824;2024-01-30T09:17:08;34.53;;;13.45;;
85259;SDS011;75671;41.678;44.824;2024-01-30T09:19:35;30.27;;;12.60;;
85259;SDS011;75671;41.678;44.824;2024-01-30T09:22:03;36.95;;;14.73;;
85259;SDS011;75671;41.678;44.824;2024-01-30T09:24:31;31.73;;;12.88;;
85259;SDS011;75671;41.678;44.824;2024-01-30T09:26:57;39.83;;;12.25;;
85259;SDS011;75671;41.678;44.824;2024-01-30T09:29:25;31.50;;;12.90;;
85259;SDS011;75671;41.678;44.824;2024-01-30T09:31:51;32.05;;;13.45;;
85259;SDS011;75671;41.678;44.824;2024-01-30T09:34:19;32.03;;;13.65;;
85259;SDS011;75671;41.678;44.824;2024-01-30T09:36:46;26.23;;;11.65;;
85259;SDS011;75671;41.678;44.824;2024-01-30T09:39:13;27.92;;;11.73;;
85259;SDS011;75671;41.678;44.824;2024-01-30T09:44:29;29.85;;;12.27;;
85259;SDS011;75671;41.678;44.824;2024-01-30T09:46:56;34.13;;;11.38;;
85259;SDS011;75671;41.678;44.824;2024-01-30T09:49:31;26.52;;;11.77;;
85259;SDS011;75671;41.678;44.824;2024-01-30T09:51:59;28.90;;;11.95;;
85259;SDS011;75671;41.678;44.824;2024-01-30T09:54:30;28.25;;;12.18;;
85259;SDS011;75671;41.678;44.824;2024-01-30T09:56:58;34.33;;;12.38;;
85259;SDS011;75671;41.678;44.824;2024-01-30T09:59:25;22.48;;;10.80;;
85259;SDS011;75671;41.678;44.824;2024-01-30T10:01:52;28.90;;;11.80;;
85259;SDS011;75671;41.678;44.824;2024-01-30T10:04:19;25.70;;;10.77;;
85259;SDS011;75671;41.678;44.824;2024-01-30T10:06:47;24.60;;;10.55;;
85259;SDS011;75671;41.678;44.824;2024-01-30T10:09:14;24.75;;;10.82;;
85259;SDS011;75671;41.678;44.824;2024-01-30T10:11:41;24.23;;;10.50;;
85259;SDS011;75671;41.678;44.824;2024-01-30T10:14:09;18.65;;;9.55;;
85259;SDS011;75671;41.678;44.824;2024-01-30T10:16:36;18.42;;;9.05;;
85259;SDS011;75671;41.678;44.824;2024-01-30T10:19:03;11.38;;;6.10;;
85259;SDS011;75671;41.678;44.824;2024-01-30T10:21:30;14.38;;;5.28;;
85259;SDS011;75671;41.678;44.824;2024-01-30T10:23:58;9.85;;;5.82;;
85259;SDS011;75671;41.678;44.824;2024-01-30T10:26:25;13.80;;;6.15;;
85259;SDS011;75671;41.678;44.824;2024-01-30T10:28:53;10.35;;;5.45;;
85259;SDS011;75671;41.678;44.824;2024-01-30T10:31:20;14.00;;;6.88;;
85259;SDS011;75671;41.678;44.824;2024-01-30T10:33:47;9.27;;;5.55;;
85259;SDS011;75671;41.678;44.824;2024-01-30T10:36:14;9.23;;;5.55;;
85259;SDS011;75671;41.678;44.824;2024-01-30T10:38:43;9.40;;;5.28;;
85259;SDS011;75671;41.678;44.824;2024-01-30T10:41:13;10.65;;;5.40;;
85259;SDS011;75671;41.678;44.824;2024-01-30T10:43:42;16.88;;;6.90;;
85259;SDS011;75671;41.678;44.824;2024-01-30T10:48:56;10.10;;;6.45;;
85259;SDS011;75671;41.678;44.824;2024-01-30T10:51:28;12.63;;;7.65;;
85259;SDS011;75671;41.678;44.824;2024-01-30T10:53:56;11.55;;;6.30;;
85259;SDS011;75671;41.678;44.824;2024-01-30T10:56:23;11.00;;;6.53;;
85259;SDS011;75671;41.678;44.824;2024-01-30T10:58:52;10.45;;;6.10;;
85259;SDS011;75671;41.678;44.824;2024-01-30T11:01:22;15.02;;;6.03;;
85259;SDS011;75671;41.678;44.824;2024-01-30T11:03:51;11.32;;;6.70;;
85259;SDS011;75671;41.678;44.824;2024-01-30T11:06:22;9.55;;;5.38;;
85259;SDS011;75671;41.678;44.824;2024-01-30T11:09:05;13.65;;;6.50;;
85259;SDS011;75671;41.678;44.824;2024-01-30T11:11:58;10.60;;;6.70;;
85259;SDS011;75671;41.678;44.824;2024-01-30T11:14:31;11.27;;;6.65;;
85259;SDS011;75671;41.678;44.824;2024-01-30T11:16:59;17.77;;;8.50;;
85259;SDS011;75671;41.678;44.824;2024-01-30T11:19:27;11.65;;;7.07;;
85259;SDS011;75671;41.678;44.824;2024-01-30T11:21:57;13.40;;;7.03;;
85259;SDS011;75671;41.678;44.824;2024-01-30T11:24:25;11.90;;;6.80;;
85259;SDS011;75671;41.678;44.824;2024-01-30T11:26:56;11.68;;;6.97;;
85259;SDS011;75671;41.678;44.824;2024-01-30T11:29:28;10.60;;;6.18;;
85259;SDS011;75671;41.678;44.824;2024-01-30T11:31:56;10.50;;;6.25;;
85259;SDS011;75671;41.678;44.824;2024-01-30T11:36:52;11.82;;;6.35;;
85259;SDS011;75671;41.678;44.824;2024-01-30T11:39:26;12.00;;;5.85;;
85259;SDS011;75671;41.678;44.824;2024-01-30T11:41:53;12.00;;;5.68;;
85259;SDS011;75671;41.678;44.824;2024-01-30T11:44:22;13.10;;;7.30;;
85259;SDS011;75671;41.678;44.824;2024-01-30T11:46:50;13.88;;;7.28;;
85259;SDS011;75671;41.678;44.824;2024-01-30T11:49:18;10.88;;;5.55;;
85259;SDS011;75671;41.678;44.824;2024-01-30T11:51:48;13.45;;;5.93;;
85259;SDS011;75671;41.678;44.824;2024-01-30T11:54:15;11.98;;;6.63;;
85259;SDS011;75671;41.678;44.824;2024-01-30T11:56:42;14.85;;;7.15;;
85259;SDS011;75671;41.678;44.824;2024-01-30T11:59:10;14.38;;;7.05;;
85259;SDS011;75671;41.678;44.824;2024-01-30T12:01:37;12.55;;;7.72;;
85259;SDS011;75671;41.678;44.824;2024-01-30T12:04:04;16.25;;;7.28;;
85259;SDS011;75671;41.678;44.824;2024-01-30T12:06:35;18.00;;;7.35;;
85259;SDS011;75671;41.678;44.824;2024-01-30T12:09:03;15.90;;;7.30;;
85259;SDS011;75671;41.678;44.824;2024-01-30T12:11:30;13.15;;;7.18;;
85259;SDS011;75671;41.678;44.824;2024-01-30T12:13:58;26.13;;;8.07;;
85259;SDS011;75671;41.678;44.824;2024-01-30T12:16:25;11.48;;;5.95;;
85259;SDS011;75671;41.678;44.824;2024-01-30T12:18:59;17.33;;;8.27;;
85259;SDS011;75671;41.678;44.824;2024-01-30T12:21:29;16.77;;;7.63;;
85259;SDS011;75671;41.678;44.824;2024-01-30T12:23:57;11.93;;;6.57;;
85259;SDS011;75671;41.678;44.824;2024-01-30T12:26:24;15.60;;;8.32;;
85259;SDS011;75671;41.678;44.824;2024-01-30T12:28:55;12.77;;;7.28;;
85259;SDS011;75671;41.678;44.824;2024-01-30T12:31:27;12.60;;;5.82;;
85259;SDS011;75671;41.678;44.824;2024-01-30T12:33:55;12.45;;;7.15;;
85259;SDS011;75671;41.678;44.824;2024-01-30T12:36:22;14.52;;;8.15;;
85259;SDS011;75671;41.678;44.824;2024-01-30T12:38:50;11.02;;;5.45;;
85259;SDS011;75671;41.678;44.824;2024-01-30T12:41:17;12.93;;;6.60;;
85259;SDS011;75671;41.678;44.824;2024-01-30T12:43:46;16.67;;;7.20;;
85259;SDS011;75671;41.678;44.824;2024-01-30T12:46:16;14.10;;;7.22;;
85259;SDS011;75671;41.678;44.824;2024-01-30T12:48:44;16.98;;;7.50;;
85259;SDS011;75671;41.678;44.824;2024-01-30T12:51:11;13.88;;;7.45;;
85259;SDS011;75671;41.678;44.824;2024-01-30T12:53:38;12.45;;;6.32;;
85259;SDS011;75671;41.678;44.824;2024-01-30T12:56:05;10.77;;;5.63;;
85259;SDS011;75671;41.678;44.824;2024-01-30T12:58:33;15.65;;;7.78;;
85259;SDS011;75671;41.678;44.824;2024-01-30T13:00:59;13.40;;;6.65;;
85259;SDS011;75671;41.678;44.824;2024-01-30T13:03:27;14.18;;;7.10;;
85259;SDS011;75671;41.678;44.824;2024-01-30T13:05:54;15.82;;;7.32;;
85259;SDS011;75671;41.678;44.824;2024-01-30T13:08:22;11.68;;;5.25;;
85259;SDS011;75671;41.678;44.824;2024-01-30T13:10:49;14.27;;;6.57;;
85259;SDS011;75671;41.678;44.824;2024-01-30T13:13:17;11.88;;;6.50;;
85259;SDS011;75671;41.678;44.824;2024-01-30T13:15:44;12.02;;;6.63;;
85259;SDS011;75671;41.678;44.824;2024-01-30T13:18:11;9.77;;;5.45;;
85259;SDS011;75671;41.678;44.824;2024-01-30T13:20:38;13.02;;;6.80;;
85259;SDS011;75671;41.678;44.824;2024-01-30T13:23:05;13.60;;;6.82;;
85259;SDS011;75671;41.678;44.824;2024-01-30T13:25:32;14.13;;;7.65;;
85259;SDS011;75671;41.678;44.824;2024-01-30T13:28:00;11.95;;;5.50;;
85259;SDS011;75671;41.678;44.824;2024-01-30T13:30:27;13.95;;;6.45;;
85259;SDS011;75671;41.678;44.824;2024-01-30T13:32:55;14.63;;;5.03;;
85259;SDS011;75671;41.678;44.824;2024-01-30T13:35:22;12.20;;;6.75;;
85259;SDS011;75671;41.678;44.824;2024-01-30T13:37:50;8.27;;;4.35;;
85259;SDS011;75671;41.678;44.824;2024-01-30T13:40:17;14.05;;;6.40;;
85259;SDS011;75671;41.678;44.824;2024-01-30T13:42:44;13.82;;;7.28;;
85259;SDS011;75671;41.678;44.824;2024-01-30T13:45:11;11.15;;;5.22;;
85259;SDS011;75671;41.678;44.824;2024-01-30T13:47:38;12.57;;;6.60;;
85259;SDS011;75671;41.678;44.824;2024-01-30T13:50:05;13.95;;;6.60;;
85259;SDS011;75671;41.678;44.824;2024-01-30T13:52:34;16.75;;;7.25;;
85259;SDS011;75671;41.678;44.824;2024-01-30T13:55:01;13.40;;;7.60;;
85259;SDS011;75671;41.678;44.824;2024-01-30T13:57:30;13.95;;;6.63;;
85259;SDS011;75671;41.678;44.824;2024-01-30T14:00:02;13.38;;;6.80;;
85259;SDS011;75671;41.678;44.824;2024-01-30T14:02:39;14.25;;;7.28;;
85259;SDS011;75671;41.678;44.824;2024-01-30T14:05:06;15.32;;;7.15;;
85259;SDS011;75671;41.678;44.824;2024-01-30T14:07:35;15.30;;;7.57;;
85259;SDS011;75671;41.678;44.824;2024-01-30T14:10:02;20.63;;;7.75;;
85259;SDS011;75671;41.678;44.824;2024-01-30T14:12:30;15.18;;;7.28;;
85259;SDS011;75671;41.678;44.824;2024-01-30T14:14:57;18.70;;;8.02;;
85259;SDS011;75671;41.678;44.824;2024-01-30T14:17:24;13.45;;;6.82;;
85259;SDS011;75671;41.678;44.824;2024-01-30T14:19:52;12.40;;;6.97;;
85259;SDS011;75671;41.678;44.824;2024-01-30T14:22:20;18.67;;;7.07;;
85259;SDS011;75671;41.678;44.824;2024-01-30T14:24:47;15.10;;;6.43;;